createdAt,value
2023-02-14T00:01:11.420Z,8.95
2023-02-14T00:03:38.975Z,9.55
2023-02-14T00:06:08.292Z,13.45
2023-02-14T00:08:36.525Z,9.00
2023-02-14T00:11:04.480Z,9.70
2023-02-14T00:13:31.902Z,7.50
2023-02-14T00:15:58.437Z,8.85
2023-02-14T00:18:47.434Z,11.32
2023-02-14T00:21:14.903Z,11.70
2023-02-14T00:23:42.346Z,9.23
2023-02-14T00:26:14.525Z,12.43
2023-02-14T00:28:41.962Z,9.25
2023-02-14T00:31:09.616Z,12.05
2023-02-14T00:33:38.526Z,9.43
2023-02-14T00:36:07.607Z,12.18
2023-02-14T00:38:35.649Z,10.70
2023-02-14T00:41:04.865Z,11.65
2023-02-14T00:43:32.559Z,12.77
2023-02-14T00:46:00.058Z,12.77
2023-02-14T00:48:27.716Z,11.52
2023-02-14T00:50:56.733Z,10.77
2023-02-14T00:53:24.346Z,9.48
2023-02-14T00:55:51.762Z,12.75
2023-02-14T00:58:19.233Z,11.57
2023-02-14T01:00:46.731Z,10.57
2023-02-14T01:03:14.226Z,8.98
2023-02-14T01:05:41.942Z,10.43
2023-02-14T01:08:10.808Z,13.48
2023-02-14T01:10:38.807Z,11.40
2023-02-14T01:13:06.770Z,10.38
2023-02-14T01:15:34.907Z,12.18
2023-02-14T01:18:02.330Z,12.88
2023-02-14T01:20:29.774Z,9.90
2023-02-14T01:22:57.314Z,11.45
2023-02-14T01:25:26.334Z,11.80
2023-02-14T01:27:53.976Z,11.80
2023-02-14T01:30:22.276Z,10.75
2023-02-14T01:32:49.800Z,10.95
2023-02-14T01:35:17.466Z,11.00
2023-02-14T01:37:44.902Z,11.32
2023-02-14T01:40:14.197Z,10.80
2023-02-14T01:42:43.017Z,8.80
2023-02-14T01:45:19.464Z,9.65
2023-02-14T01:47:50.929Z,12.02
2023-02-14T01:50:22.638Z,12.77
2023-02-14T01:52:53.766Z,9.98
2023-02-14T01:55:24.582Z,10.85
2023-02-14T01:57:57.148Z,12.85
2023-02-14T02:00:42.674Z,11.60
2023-02-14T02:03:11.777Z,9.00
2023-02-14T02:05:45.322Z,11.63
2023-02-14T02:08:13.220Z,11.55
2023-02-14T02:10:40.685Z,6.93
2023-02-14T02:13:16.684Z,14.70
2023-02-14T02:15:54.746Z,11.50
2023-02-14T02:18:32.740Z,9.63
2023-02-14T02:21:31.922Z,8.52
2023-02-14T02:24:29.544Z,10.10
2023-02-14T02:27:19.919Z,15.05
2023-02-14T02:30:10.290Z,8.95
2023-02-14T02:33:11.419Z,9.88
2023-02-14T02:36:09.809Z,8.40
2023-02-14T02:38:55.402Z,9.25
2023-02-14T02:41:33.592Z,11.48
2023-02-14T02:44:08.771Z,10.77
2023-02-14T02:46:49.995Z,10.65
2023-02-14T02:49:59.314Z,11.25
2023-02-14T02:52:55.712Z,11.18
2023-02-14T02:55:29.173Z,10.40
2023-02-14T02:57:56.841Z,10.65
2023-02-14T03:00:25.826Z,9.30
2023-02-14T03:03:15.832Z,7.47
2023-02-14T03:05:44.253Z,10.52
2023-02-14T03:08:13.045Z,10.30
2023-02-14T03:10:40.820Z,11.50
2023-02-14T03:13:39.734Z,8.80
2023-02-14T03:16:26.464Z,7.85
2023-02-14T03:19:11.238Z,11.40
2023-02-14T03:21:51.063Z,8.05
2023-02-14T03:24:28.478Z,6.82
2023-02-14T03:27:04.695Z,9.15
2023-02-14T03:29:44.710Z,10.93
2023-02-14T03:32:17.652Z,9.30
2023-02-14T03:34:53.841Z,8.40
2023-02-14T03:37:27.348Z,9.07
2023-02-14T03:40:06.342Z,9.75
2023-02-14T03:42:37.640Z,9.23
2023-02-14T03:45:10.155Z,8.90
2023-02-14T03:47:41.858Z,8.70
2023-02-14T03:50:15.509Z,8.98
2023-02-14T03:52:45.551Z,8.57
2023-02-14T03:55:18.137Z,15.13
2023-02-14T03:57:53.712Z,8.23
2023-02-14T04:00:21.635Z,8.75
2023-02-14T04:02:54.014Z,8.88
2023-02-14T04:05:25.839Z,8.80
2023-02-14T04:07:55.311Z,9.80
2023-02-14T04:10:25.246Z,7.43
2023-02-14T04:12:52.755Z,10.63
2023-02-14T04:15:20.319Z,10.35
2023-02-14T04:18:05.266Z,9.27
2023-02-14T04:20:32.808Z,10.10
2023-02-14T04:23:02.312Z,13.80
2023-02-14T04:25:32.320Z,9.13
2023-02-14T04:27:59.772Z,10.93
2023-02-14T04:30:27.324Z,11.18
2023-02-14T04:32:54.850Z,10.43
2023-02-14T04:35:22.281Z,10.13
2023-02-14T04:37:49.785Z,9.07
2023-02-14T04:40:17.735Z,10.00
2023-02-14T04:42:47.061Z,8.02
2023-02-14T04:45:15.070Z,10.10
2023-02-14T04:47:42.559Z,11.13
2023-02-14T04:50:10.773Z,9.88
2023-02-14T04:52:38.338Z,10.45
2023-02-14T04:55:06.604Z,9.48
2023-02-14T04:57:34.166Z,8.30
2023-02-14T05:00:02.993Z,10.52
2023-02-14T05:02:30.515Z,11.38
2023-02-14T05:04:57.996Z,9.63
2023-02-14T05:07:25.461Z,10.73
2023-02-14T05:09:52.976Z,10.93
2023-02-14T05:12:20.601Z,9.48
2023-02-14T05:14:48.145Z,10.50
2023-02-14T05:17:17.033Z,12.52
2023-02-14T05:19:44.520Z,10.07
2023-02-14T05:22:12.075Z,10.38
2023-02-14T05:24:40.033Z,11.02
2023-02-14T05:27:07.719Z,10.77
2023-02-14T05:29:35.215Z,9.80
2023-02-14T05:32:02.690Z,11.05
2023-02-14T05:34:31.569Z,9.70
2023-02-14T05:36:59.073Z,10.32
2023-02-14T05:39:26.542Z,11.43
2023-02-14T05:41:53.988Z,10.73
2023-02-14T05:44:21.657Z,11.88
2023-02-14T05:46:49.171Z,10.77
2023-02-14T05:49:16.599Z,11.32
2023-02-14T05:51:45.415Z,14.50
2023-02-14T05:54:12.986Z,11.35
2023-02-14T05:56:40.536Z,11.32
2023-02-14T05:59:08.028Z,13.18
2023-02-14T06:01:35.462Z,8.95
2023-02-14T06:04:03.156Z,11.05
2023-02-14T06:06:30.721Z,10.38
2023-02-14T06:08:59.545Z,11.70
2023-02-14T06:11:27.002Z,11.15
2023-02-14T06:13:54.455Z,9.93
2023-02-14T06:16:21.972Z,9.23
2023-02-14T06:18:49.608Z,9.15
2023-02-14T06:21:17.082Z,10.73
2023-02-14T06:23:44.521Z,9.15
2023-02-14T06:26:13.387Z,11.98
2023-02-14T06:28:40.833Z,11.32
2023-02-14T06:31:08.379Z,11.65
2023-02-14T06:33:35.988Z,12.05
2023-02-14T06:36:03.404Z,12.27
2023-02-14T06:38:30.826Z,14.45
2023-02-14T06:41:04.316Z,13.05
2023-02-14T06:43:33.466Z,13.30
2023-02-14T06:46:00.974Z,12.30
2023-02-14T06:48:28.536Z,12.75
2023-02-14T06:50:55.964Z,11.18
2023-02-14T06:53:23.369Z,11.52
2023-02-14T06:55:50.851Z,12.23
2023-02-14T06:58:18.306Z,10.80
2023-02-14T07:00:47.153Z,12.80
2023-02-14T07:03:14.976Z,12.32
2023-02-14T07:05:42.458Z,9.50
2023-02-14T07:08:10.248Z,14.90
2023-02-14T07:10:37.991Z,11.20
2023-02-14T07:13:05.868Z,14.50
2023-02-14T07:15:33.655Z,11.82
2023-02-14T07:18:02.436Z,12.95
2023-02-14T07:20:29.972Z,11.40
2023-02-14T07:22:57.412Z,10.63
2023-02-14T07:25:24.834Z,15.82
2023-02-14T07:27:52.330Z,12.45
2023-02-14T07:30:19.955Z,12.35
2023-02-14T07:32:47.436Z,10.48
2023-02-14T07:35:16.202Z,10.52
2023-02-14T07:37:43.610Z,12.77
2023-02-14T07:40:14.846Z,12.52
2023-02-14T07:42:42.992Z,7.30
2023-02-14T07:45:21.121Z,14.00
2023-02-14T07:47:50.916Z,14.85
2023-02-14T07:50:20.678Z,15.02
2023-02-14T07:52:48.365Z,14.75
2023-02-14T07:55:16.270Z,9.52
2023-02-14T07:57:43.751Z,12.63
2023-02-14T08:00:11.937Z,11.80
2023-02-14T08:02:39.357Z,14.82
2023-02-14T08:05:07.570Z,15.77
2023-02-14T08:07:36.595Z,10.93
2023-02-14T08:10:04.264Z,11.15
2023-02-14T08:12:49.572Z,14.68
2023-02-14T08:15:34.738Z,17.45
2023-02-14T08:18:02.218Z,12.02
2023-02-14T08:20:29.812Z,14.45
2023-02-14T08:22:58.756Z,12.75
2023-02-14T08:25:26.243Z,17.58
2023-02-14T08:27:55.121Z,12.88
2023-02-14T08:30:23.067Z,14.15
2023-02-14T08:32:50.612Z,14.02
2023-02-14T08:35:18.307Z,13.10
2023-02-14T08:37:45.772Z,14.13
2023-02-14T08:40:14.884Z,15.18
2023-02-14T08:42:42.702Z,14.65
2023-02-14T08:45:10.856Z,12.77
2023-02-14T08:47:40.163Z,11.75
2023-02-14T08:50:09.959Z,10.50
2023-02-14T08:52:37.489Z,9.30
2023-02-14T08:55:05.173Z,11.50
2023-02-14T08:57:34.060Z,10.40
2023-02-14T09:00:01.536Z,12.30
2023-02-14T09:02:29.109Z,8.00
2023-02-14T09:04:56.545Z,12.48
2023-02-14T09:07:23.981Z,12.50
2023-02-14T09:09:51.448Z,14.35
2023-02-14T09:12:18.893Z,11.63
2023-02-14T09:14:47.727Z,10.85
2023-02-14T09:17:16.160Z,11.48
2023-02-14T09:19:43.944Z,12.63
2023-02-14T09:22:12.771Z,9.68
2023-02-14T09:24:41.390Z,10.35
2023-02-14T09:27:10.536Z,13.23
2023-02-14T09:29:38.249Z,12.07
2023-02-14T09:32:07.533Z,8.52
2023-02-14T09:34:36.266Z,11.18
2023-02-14T09:37:21.523Z,11.00
2023-02-14T09:39:49.176Z,11.10
2023-02-14T09:42:37.808Z,10.32
2023-02-14T09:45:12.040Z,11.27
2023-02-14T09:47:47.461Z,11.48
2023-02-14T09:50:20.890Z,12.20
2023-02-14T09:52:53.246Z,11.80
2023-02-14T09:55:27.754Z,11.20
2023-02-14T09:58:10.154Z,12.80
2023-02-14T10:00:43.498Z,12.45
2023-02-14T10:03:49.972Z,12.13
2023-02-14T10:06:31.394Z,11.30
2023-02-14T10:09:08.254Z,12.75
2023-02-14T10:11:46.635Z,10.97
2023-02-14T10:14:18.188Z,10.48
2023-02-14T10:16:49.841Z,10.90
2023-02-14T10:19:25.200Z,11.10
2023-02-14T10:22:02.802Z,12.52
2023-02-14T10:24:36.103Z,11.93
2023-02-14T10:27:13.330Z,14.55
2023-02-14T10:29:42.806Z,11.35
2023-02-14T10:32:15.463Z,16.35
2023-02-14T10:34:50.067Z,15.40
2023-02-14T10:37:32.800Z,11.73
2023-02-14T10:40:21.832Z,13.80
2023-02-14T10:42:59.964Z,13.43
2023-02-14T10:45:35.344Z,13.57
2023-02-14T10:48:09.997Z,14.73
2023-02-14T10:50:47.726Z,14.50
2023-02-14T10:53:20.812Z,12.30
2023-02-14T10:55:53.888Z,16.92
2023-02-14T10:58:23.593Z,15.85
2023-02-14T11:00:59.209Z,15.95
2023-02-14T11:03:28.386Z,17.20
2023-02-14T11:05:57.374Z,15.00
2023-02-14T11:08:28.230Z,16.38
2023-02-14T11:11:01.019Z,13.70
2023-02-14T11:13:35.218Z,14.45
2023-02-14T11:16:05.354Z,13.97
2023-02-14T11:18:35.680Z,18.58
2023-02-14T11:21:08.175Z,15.27
2023-02-14T11:23:38.690Z,19.73
2023-02-14T11:26:11.625Z,16.80
2023-02-14T11:28:49.685Z,16.17
2023-02-14T11:31:26.434Z,15.10
2023-02-14T11:33:54.294Z,15.93
2023-02-14T11:36:24.713Z,17.88
2023-02-14T11:38:58.947Z,14.50
2023-02-14T11:41:26.372Z,17.33
2023-02-14T11:44:12.820Z,13.52
2023-02-14T11:46:52.748Z,15.05
2023-02-14T11:49:30.083Z,15.68
2023-02-14T11:52:02.864Z,18.27
2023-02-14T11:54:36.549Z,15.50
2023-02-14T11:57:09.565Z,15.05
2023-02-14T11:59:44.136Z,14.13
2023-02-14T12:02:26.595Z,14.25
2023-02-14T12:04:58.337Z,14.77
2023-02-14T12:07:31.789Z,19.13
2023-02-14T12:10:18.346Z,12.95
2023-02-14T12:12:54.304Z,17.05
2023-02-14T12:15:36.546Z,14.60
2023-02-14T12:18:30.744Z,14.07
2023-02-14T12:21:05.089Z,14.53
2023-02-14T12:23:41.920Z,12.88
2023-02-14T12:26:18.620Z,17.77
2023-02-14T12:28:52.105Z,13.30
2023-02-14T12:31:20.472Z,14.98
2023-02-14T12:33:50.219Z,12.27
2023-02-14T12:36:31.596Z,13.80
2023-02-14T12:39:09.839Z,15.35
2023-02-14T12:41:45.988Z,12.48
2023-02-14T12:44:22.187Z,12.95
2023-02-14T12:47:04.383Z,12.70
2023-02-14T12:49:49.317Z,12.27
2023-02-14T12:52:39.117Z,13.18
2023-02-14T12:55:28.367Z,12.10
2023-02-14T12:58:03.418Z,10.77
2023-02-14T13:00:38.536Z,12.40
2023-02-14T13:03:31.802Z,12.25
2023-02-14T13:06:04.929Z,13.35
2023-02-14T13:08:49.297Z,13.25
2023-02-14T13:11:34.324Z,13.70
2023-02-14T13:14:15.767Z,12.40
2023-02-14T13:16:50.420Z,13.95
2023-02-14T13:19:33.844Z,11.52
2023-02-14T13:22:03.069Z,10.30
2023-02-14T13:24:36.372Z,12.25
2023-02-14T13:27:07.996Z,12.73
2023-02-14T13:29:44.181Z,12.00
2023-02-14T13:32:15.030Z,12.48
2023-02-14T13:34:45.043Z,9.95
2023-02-14T13:37:15.199Z,11.05
2023-02-14T13:39:46.621Z,11.27
2023-02-14T13:42:51.889Z,12.20
2023-02-14T13:46:04.980Z,12.63
2023-02-14T13:48:33.033Z,12.23
2023-02-14T13:51:02.823Z,13.43
2023-02-14T13:53:33.934Z,12.80
2023-02-14T13:56:02.061Z,12.65
2023-02-14T13:58:31.240Z,10.90
2023-02-14T14:00:59.027Z,13.70
2023-02-14T14:03:55.153Z,9.85
2023-02-14T14:06:22.642Z,9.20
2023-02-14T14:08:56.984Z,10.02
2023-02-14T14:11:59.465Z,15.25
2023-02-14T14:14:36.234Z,9.93
2023-02-14T14:17:19.425Z,8.63
2023-02-14T14:19:47.534Z,10.73
2023-02-14T14:22:16.609Z,8.65
2023-02-14T14:24:57.033Z,10.35
2023-02-14T14:27:27.087Z,9.52
2023-02-14T14:29:58.369Z,8.52
2023-02-14T14:32:30.457Z,9.53
2023-02-14T14:34:59.703Z,8.90
2023-02-14T14:37:29.575Z,8.43
2023-02-14T14:39:58.811Z,7.78
2023-02-14T14:42:31.810Z,8.52
2023-02-14T14:45:03.284Z,9.57
2023-02-14T14:47:38.041Z,11.65
2023-02-14T14:50:10.528Z,9.00
2023-02-14T14:52:40.640Z,9.05
2023-02-14T14:55:10.154Z,10.18
2023-02-14T14:57:39.552Z,8.77
2023-02-14T15:00:20.364Z,8.85
2023-02-14T15:03:06.440Z,12.10
2023-02-14T15:05:36.730Z,9.68
2023-02-14T15:08:20.822Z,10.98
2023-02-14T15:10:52.374Z,11.13
2023-02-14T15:13:48.710Z,14.57
2023-02-14T15:16:22.937Z,16.15
2023-02-14T15:18:52.078Z,16.42
2023-02-14T15:21:19.792Z,14.85
2023-02-14T15:23:47.692Z,15.67
2023-02-14T15:26:19.814Z,16.65
2023-02-14T15:28:55.666Z,15.10
2023-02-14T15:31:29.017Z,16.67
2023-02-14T15:33:57.576Z,18.30
2023-02-14T15:36:25.410Z,17.43
2023-02-14T15:38:54.344Z,14.57
2023-02-14T15:41:24.219Z,17.98
2023-02-14T15:43:53.996Z,16.25
2023-02-14T15:46:32.150Z,16.92
2023-02-14T15:49:01.702Z,16.17
2023-02-14T15:51:32.585Z,12.57
2023-02-14T15:54:02.768Z,15.65
2023-02-14T15:56:32.432Z,16.70
2023-02-14T15:59:02.230Z,16.58
2023-02-14T16:01:33.587Z,16.13
2023-02-14T16:04:03.582Z,17.00
2023-02-14T16:06:37.187Z,17.50
2023-02-14T16:09:06.953Z,15.55
2023-02-14T16:11:36.995Z,12.38
2023-02-14T16:14:40.885Z,18.10
2023-02-14T16:17:13.519Z,17.52
2023-02-14T16:19:42.948Z,19.98
2023-02-14T16:22:11.847Z,18.45
2023-02-14T16:24:40.279Z,15.07
2023-02-14T16:27:07.788Z,18.43
2023-02-14T16:29:36.653Z,17.58
2023-02-14T16:32:16.954Z,16.38
2023-02-14T16:34:46.983Z,17.67
2023-02-14T16:37:22.220Z,18.98
2023-02-14T16:39:50.767Z,21.97
2023-02-14T16:42:19.069Z,20.48
2023-02-14T16:44:47.371Z,21.58
2023-02-14T16:47:18.385Z,18.25
2023-02-14T16:49:46.922Z,19.17
2023-02-14T16:52:17.210Z,20.63
2023-02-14T16:54:44.908Z,17.10
2023-02-14T16:57:18.180Z,16.30
2023-02-14T16:59:45.659Z,16.52
2023-02-14T17:02:13.736Z,15.80
2023-02-14T17:04:42.568Z,15.23
2023-02-14T17:07:10.280Z,18.05
2023-02-14T17:09:41.465Z,18.25
2023-02-14T17:12:15.985Z,15.35
2023-02-14T17:14:46.568Z,15.05
2023-02-14T17:17:14.477Z,15.03
2023-02-14T17:19:43.880Z,13.82
2023-02-14T17:22:13.647Z,14.25
2023-02-14T17:24:41.431Z,14.02
2023-02-14T17:27:09.698Z,12.65
2023-02-14T17:29:37.145Z,15.70
2023-02-14T17:32:04.866Z,14.05
2023-02-14T17:34:32.553Z,12.93
2023-02-14T17:37:02.737Z,12.25
2023-02-14T17:39:30.165Z,13.68
2023-02-14T17:41:57.674Z,15.95
2023-02-14T17:44:25.108Z,15.48
2023-02-14T17:46:54.472Z,16.02
2023-02-14T17:49:21.897Z,18.17
2023-02-14T17:51:49.319Z,17.38
2023-02-14T17:54:18.566Z,16.30
2023-02-14T17:56:46.011Z,16.75
2023-02-14T17:59:13.413Z,15.13
2023-02-14T18:01:40.884Z,15.20
2023-02-14T18:04:08.392Z,14.75
2023-02-14T18:06:36.186Z,14.80
2023-02-14T18:09:06.023Z,14.38
2023-02-14T18:11:34.960Z,13.70
2023-02-14T18:14:04.364Z,15.05
2023-02-14T18:16:31.879Z,16.17
2023-02-14T18:19:02.823Z,14.50
2023-02-14T18:21:34.406Z,19.55
2023-02-14T18:24:01.961Z,16.13
2023-02-14T18:26:29.698Z,17.10
2023-02-14T18:28:58.496Z,16.70
2023-02-14T18:31:26.181Z,17.75
2023-02-14T18:33:54.829Z,20.70
2023-02-14T18:36:24.045Z,17.27
2023-02-14T18:38:51.853Z,18.70
2023-02-14T18:41:20.671Z,17.70
2023-02-14T18:43:51.144Z,16.98
2023-02-14T18:46:26.289Z,14.98
2023-02-14T18:48:59.944Z,16.63
2023-02-14T18:51:29.818Z,17.35
2023-02-14T18:53:59.435Z,17.48
2023-02-14T18:56:28.981Z,16.17
2023-02-14T18:59:02.423Z,17.52
2023-02-14T19:01:36.691Z,16.30
2023-02-14T19:04:08.010Z,20.23
2023-02-14T19:06:38.618Z,19.08
2023-02-14T19:09:10.000Z,21.60
2023-02-14T19:11:39.793Z,22.75
2023-02-14T19:14:10.069Z,19.50
2023-02-14T19:16:43.770Z,19.38
2023-02-14T19:19:12.255Z,18.75
2023-02-14T19:21:39.899Z,18.55
2023-02-14T19:24:09.460Z,20.35
2023-02-14T19:26:40.484Z,22.80
2023-02-14T19:29:10.525Z,23.00
2023-02-14T19:31:42.061Z,20.27
2023-02-14T19:34:16.786Z,19.80
2023-02-14T19:36:44.663Z,22.42
2023-02-14T19:39:13.538Z,18.85
2023-02-14T19:41:41.705Z,20.77
2023-02-14T19:44:10.377Z,24.52
2023-02-14T19:46:39.572Z,21.52
2023-02-14T19:49:07.568Z,24.73
2023-02-14T19:51:36.963Z,20.15
2023-02-14T19:54:07.202Z,22.33
2023-02-14T19:56:37.512Z,17.80
2023-02-14T19:59:08.906Z,19.85
2023-02-14T20:01:41.320Z,20.55
2023-02-14T20:04:13.692Z,23.42
2023-02-14T20:06:42.016Z,19.10
2023-02-14T20:09:10.195Z,15.55
2023-02-14T20:11:41.439Z,16.77
2023-02-14T20:14:09.942Z,17.33
2023-02-14T20:16:41.838Z,21.65
2023-02-14T20:19:12.830Z,22.05
2023-02-14T20:21:42.216Z,23.40
2023-02-14T20:24:10.854Z,23.13
2023-02-14T20:26:41.527Z,20.90
2023-02-14T20:29:11.152Z,19.45
2023-02-14T20:31:43.221Z,24.00
2023-02-14T20:34:11.608Z,23.48
2023-02-14T20:36:39.854Z,25.13
2023-02-14T20:39:10.540Z,25.77
2023-02-14T20:41:38.181Z,24.92
2023-02-14T20:44:08.204Z,25.10
2023-02-14T20:46:38.288Z,21.73
2023-02-14T20:49:12.264Z,20.95
2023-02-14T20:51:40.614Z,16.58
2023-02-14T20:54:08.293Z,20.42
2023-02-14T20:56:35.984Z,23.27
2023-02-14T20:59:03.682Z,24.85
2023-02-14T21:01:31.493Z,21.83
2023-02-14T21:03:59.116Z,21.92
2023-02-14T21:06:33.726Z,18.05
2023-02-14T21:09:02.315Z,21.65
2023-02-14T21:11:30.295Z,17.55
2023-02-14T21:13:59.945Z,19.52
2023-02-14T21:16:29.606Z,22.25
2023-02-14T21:18:59.856Z,25.25
2023-02-14T21:21:35.265Z,19.40
2023-02-14T21:24:04.598Z,19.83
2023-02-14T21:26:32.441Z,20.42
2023-02-14T21:29:00.235Z,21.33
2023-02-14T21:31:28.148Z,25.05
2023-02-14T21:33:57.845Z,18.95
2023-02-14T21:36:26.621Z,21.77
2023-02-14T21:38:58.371Z,24.83
2023-02-14T21:41:27.815Z,19.92
2023-02-14T21:43:56.315Z,18.48
2023-02-14T21:46:27.452Z,21.42
2023-02-14T21:49:13.198Z,27.55
2023-02-14T21:51:43.056Z,25.73
2023-02-14T21:54:12.716Z,23.00
2023-02-14T21:56:43.870Z,22.58
2023-02-14T21:59:12.084Z,22.20
2023-02-14T22:01:42.151Z,19.90
2023-02-14T22:04:12.484Z,22.83
2023-02-14T22:06:41.931Z,24.27
2023-02-14T22:09:11.040Z,24.83
2023-02-14T22:11:42.536Z,25.05
2023-02-14T22:14:10.230Z,25.92
2023-02-14T22:16:40.713Z,24.17
2023-02-14T22:19:09.988Z,28.00
2023-02-14T22:21:37.829Z,31.15
2023-02-14T22:24:06.044Z,24.30
2023-02-14T22:26:35.471Z,25.15
2023-02-14T22:29:04.551Z,23.15
2023-02-14T22:31:36.814Z,25.58
2023-02-14T22:34:04.570Z,27.15
2023-02-14T22:36:32.130Z,26.45
2023-02-14T22:38:59.706Z,22.08
2023-02-14T22:41:27.533Z,28.25
2023-02-14T22:43:55.829Z,25.05
2023-02-14T22:46:27.115Z,31.52
2023-02-14T22:48:55.608Z,24.88
2023-02-14T22:51:25.497Z,27.85
2023-02-14T22:53:55.494Z,28.55
2023-02-14T22:56:24.834Z,31.15
2023-02-14T22:58:55.048Z,26.88
2023-02-14T23:01:24.640Z,32.42
2023-02-14T23:03:54.803Z,30.27
2023-02-14T23:06:22.981Z,28.50
2023-02-14T23:08:50.983Z,29.15
2023-02-14T23:11:20.173Z,29.58
2023-02-14T23:14:04.977Z,29.52
2023-02-14T23:16:51.525Z,30.83
2023-02-14T23:19:38.614Z,31.75
2023-02-14T23:22:08.112Z,26.58
2023-02-14T23:24:35.868Z,31.83
2023-02-14T23:27:03.880Z,28.75
2023-02-14T23:29:31.660Z,29.65
2023-02-14T23:32:00.612Z,31.80
2023-02-14T23:34:28.590Z,33.50
2023-02-14T23:36:56.027Z,33.03
2023-02-14T23:39:24.118Z,30.13
2023-02-14T23:41:51.682Z,28.88
2023-02-14T23:44:20.962Z,32.63
2023-02-14T23:46:49.530Z,30.52
2023-02-14T23:49:19.084Z,29.80
2023-02-14T23:51:48.497Z,30.27
2023-02-14T23:54:16.048Z,32.22
2023-02-14T23:56:45.164Z,25.45
2023-02-14T23:59:14.827Z,36.53
